Time;durP1;ratioP1;P1;durP2;ratioP2;P2;SDS_P1;SDS_P2;PMS_P1;PMS_P2;Temp;Humidity;BMP_temperature;BMP_pressure;BME280_temperature;BME280_humidity;BME280_pressure;Samples;Min_cycle;Max_cycle;Signal;HPM_P1;HPM_P2
2023/01/20 00:01:23;;;;;;;;;;;4.40;85.90;;;;;;5016014;28;20396;-88
2023/01/20 00:03:49;;;;;;;;;;;4.50;84.90;;;;;;4998486;28;19939;-88
2023/01/20 00:06:15;;;;;;;;;;;4.50;84.60;;;;;;5016046;28;19942;-87
2023/01/20 00:08:40;;;;;;;;;;;4.60;84.50;;;;;;5015965;28;19971;-87
2023/01/20 00:11:10;;;;;;;;;;;4.50;84.20;;;;;;5015724;28;20308;-87
2023/01/20 00:13:35;;;;;;;;;;;4.50;84.20;;;;;;5015762;28;20018;-88
2023/01/20 00:16:02;;;;;;;;;;;4.40;84.30;;;;;;5015879;28;19981;-87
2023/01/20 00:18:28;;;;;;;;;;;4.40;84.00;;;;;;5015777;28;19941;-87
2023/01/20 00:20:53;;;;;;;;;;;4.40;83.70;;;;;;5015418;28;19969;-87
2023/01/20 00:23:19;;;;;;;;;;;4.00;84.80;;;;;;5015759;28;20409;-87
2023/01/20 00:25:45;;;;;;;;;;;3.90;85.40;;;;;;5015641;28;19945;-87
2023/01/20 00:28:10;;;;;;;;;;;3.80;86.20;;;;;;5015632;28;20038;-87
2023/01/20 00:30:36;;;;;;;;;;;3.80;86.50;;;;;;5015346;28;19989;-87
2023/01/20 00:33:01;;;;;;;;;;;3.90;86.50;;;;;;5015554;28;19962;-87
2023/01/20 00:35:27;;;;;;;;;;;4.00;85.70;;;;;;5015491;28;19935;-87
2023/01/20 00:37:52;;;;;;;;;;;4.20;85.10;;;;;;5015367;28;19947;-87
2023/01/20 00:40:18;;;;;;;;;;;4.30;84.30;;;;;;5014973;28;19948;-87
2023/01/20 00:42:43;;;;;;;;;;;4.30;84.10;;;;;;5015072;28;19946;-87
2023/01/20 00:45:09;;;;;;;;;;;4.30;84.40;;;;;;5015344;28;19935;-87
2023/01/20 00:47:34;;;;;;;;;;;4.40;84.50;;;;;;5015229;28;19940;-87
2023/01/20 00:50:00;;;;;;;;;;;4.40;84.30;;;;;;5014259;28;19954;-87
2023/01/20 00:52:26;;;;;;;;;;;4.40;84.20;;;;;;5015078;28;19957;-87
2023/01/20 00:54:51;;;;;;;;;;;4.40;84.00;;;;;;5015055;28;19965;-87
2023/01/20 00:57:17;;;;;;;;;;;4.40;83.90;;;;;;5015004;28;19945;-87
2023/01/20 00:59:42;;;;;;;;;;;4.50;83.80;;;;;;5014727;28;19960;-87
2023/01/20 01:02:08;;;;;;;;;;;4.50;83.50;;;;;;5014922;28;19971;-87
2023/01/20 01:04:33;;;;;;;;;;;4.40;83.50;;;;;;5014954;28;19996;-87
2023/01/20 01:06:59;;;;;;;;;;;4.20;84.10;;;;;;5014866;28;19943;-87
2023/01/20 01:09:24;;;;;;;;;;;4.10;84.30;;;;;;5014656;28;19955;-88
2023/01/20 01:11:51;;;;;;;;;;;4.30;83.90;;;;;;5014831;28;19944;-87
2023/01/20 01:14:17;;;;;;;;;;;4.40;83.50;;;;;;5036512;22;20049;-87
2023/01/20 01:16:43;;;;;;;;;;;4.40;83.20;;;;;;5034462;28;19984;-87
2023/01/20 01:19:08;;;;;;;;;;;4.40;82.80;;;;;;5032785;28;20001;-87
2023/01/20 01:21:34;;;;;;;;;;;4.40;82.80;;;;;;5033975;28;20437;-88
2023/01/20 01:24:00;;;;;;;;;;;4.30;83.40;;;;;;5034362;28;20299;-87
2023/01/20 01:26:26;;;;;;;;;;;4.30;83.90;;;;;;5034248;28;19937;-86
2023/01/20 01:28:52;;;;;;;;;;;4.40;83.30;;;;;;5025089;28;19985;-87
2023/01/20 01:31:20;;;;;;;;;;;4.40;82.90;;;;;;5014708;28;19944;-87
2023/01/20 01:33:46;;;;;;;;;;;4.30;83.70;;;;;;5014418;28;19939;-87
2023/01/20 01:36:12;;;;;;;;;;;4.20;84.40;;;;;;5014338;28;20311;-87
2023/01/20 01:38:38;;;;;;;;;;;4.20;84.20;;;;;;5003276;28;19951;-87
2023/01/20 01:41:04;;;;;;;;;;;4.20;83.50;;;;;;5033946;28;19962;-87
2023/01/20 01:43:31;;;;;;;;;;;4.20;83.30;;;;;;5034018;28;19937;-87
2023/01/20 01:45:57;;;;;;;;;;;4.30;83.20;;;;;;5033916;28;19979;-87
2023/01/20 01:48:24;;;;;;;;;;;4.30;82.90;;;;;;5033885;28;20412;-87
2023/01/20 01:50:50;;;;;;;;;;;4.30;83.10;;;;;;5027273;28;19969;-87
2023/01/20 01:53:15;;;;;;;;;;;4.30;83.10;;;;;;5014236;28;20331;-87
2023/01/20 01:55:43;;;;;;;;;;;4.40;83.40;;;;;;5013920;28;19982;-87
2023/01/20 01:58:11;;;;;;;;;;;4.40;83.90;;;;;;5014066;28;20047;-87
2023/01/20 02:00:37;;;;;;;;;;;4.40;83.70;;;;;;5013948;28;19938;-87
2023/01/20 02:03:03;;;;;;;;;;;4.50;83.90;;;;;;5013934;28;20309;-87
2023/01/20 02:05:29;;;;;;;;;;;4.50;84.30;;;;;;5024568;28;19970;-87
2023/01/20 02:07:56;;;;;;;;;;;4.50;84.10;;;;;;5033298;28;19946;-87
2023/01/20 02:10:22;;;;;;;;;;;4.50;84.40;;;;;;5033253;28;20391;-87
2023/01/20 02:12:50;;;;;;;;;;;4.40;84.80;;;;;;5033327;28;19942;-88
2023/01/20 02:15:16;;;;;;;;;;;4.40;85.10;;;;;;5033392;28;20414;-87
2023/01/20 02:18:11;;;;;;;;;;;4.40;85.00;;;;;;5033638;28;19938;-87
2023/01/20 02:20:48;;;;;;;;;;;4.50;84.70;;;;;;4996297;28;19941;-88
2023/01/20 02:23:23;;;;;;;;;;;4.60;84.10;;;;;;5015600;28;19951;-87
2023/01/20 02:26:07;;;;;;;;;;;4.70;83.80;;;;;;5033301;28;19940;-87
2023/01/20 02:28:36;;;;;;;;;;;4.90;83.30;;;;;;5033248;28;20023;-87
2023/01/20 02:31:11;;;;;;;;;;;5.00;82.50;;;;;;5033200;28;20414;-86
2023/01/20 02:33:55;;;;;;;;;;;5.00;82.30;;;;;;5015475;28;19944;-87
2023/01/20 02:36:28;;;;;;;;;;;4.90;83.10;;;;;;5033436;28;19941;-87
2023/01/20 02:39:00;;;;;;;;;;;4.80;83.30;;;;;;5032862;28;20315;-87
2023/01/20 02:41:31;;;;;;;;;;;4.70;84.10;;;;;;5033006;28;20393;-87
2023/01/20 02:44:12;;;;;;;;;;;4.70;84.40;;;;;;5033087;28;19940;-88
2023/01/20 02:46:42;;;;;;;;;;;4.70;84.90;;;;;;5033074;28;19945;-88
2023/01/20 02:49:07;;;;;;;;;;;4.60;85.10;;;;;;5033060;28;19937;-87
2023/01/20 02:51:37;;;;;;;;;;;4.80;85.10;;;;;;5032971;28;20023;-87
2023/01/20 02:54:04;;;;;;;;;;;5.00;84.60;;;;;;5032866;28;19958;-87
2023/01/20 02:56:30;;;;;;;;;;;5.00;83.80;;;;;;5015156;28;20405;-87
2023/01/20 02:59:08;;;;;;;;;;;5.00;83.50;;;;;;5032710;28;19954;-87
2023/01/20 03:01:36;;;;;;;;;;;5.10;83.00;;;;;;5032842;28;19960;-87
2023/01/20 03:04:03;;;;;;;;;;;5.00;83.30;;;;;;5032873;28;19935;-88
2023/01/20 03:06:32;;;;;;;;;;;5.20;83.50;;;;;;5032897;28;20005;-87
2023/01/20 03:08:59;;;;;;;;;;;5.10;83.50;;;;;;5032908;28;19980;-87
2023/01/20 03:11:25;;;;;;;;;;;4.90;84.10;;;;;;5032960;28;19940;-87
2023/01/20 03:13:58;;;;;;;;;;;4.90;83.90;;;;;;5036639;28;20423;-87
2023/01/20 03:16:25;;;;;;;;;;;4.90;83.70;;;;;;5036734;28;19937;-87
2023/01/20 03:18:51;;;;;;;;;;;4.90;84.20;;;;;;5036696;28;20083;-87
2023/01/20 03:21:16;;;;;;;;;;;5.00;84.00;;;;;;5036282;28;20050;-87
2023/01/20 03:23:46;;;;;;;;;;;5.00;83.50;;;;;;5036554;28;20097;-87
2023/01/20 03:26:13;;;;;;;;;;;4.90;84.10;;;;;;5036565;28;20002;-87
2023/01/20 03:28:40;;;;;;;;;;;4.60;85.50;;;;;;5036537;28;20400;-87
2023/01/20 03:31:26;;;;;;;;;;;4.50;85.90;;;;;;5036405;28;20394;-87
2023/01/20 03:33:53;;;;;;;;;;;4.50;86.20;;;;;;5036396;28;19950;-87
2023/01/20 03:36:20;;;;;;;;;;;4.40;86.40;;;;;;5018674;28;19942;-87
2023/01/20 03:38:46;;;;;;;;;;;4.50;86.60;;;;;;5036264;28;19946;-87
2023/01/20 03:41:30;;;;;;;;;;;4.70;85.90;;;;;;5036159;28;20051;-87
2023/01/20 03:44:02;;;;;;;;;;;4.70;85.40;;;;;;5035981;28;19939;-87
2023/01/20 03:46:51;;;;;;;;;;;4.70;85.40;;;;;;5002074;28;19949;-87
2023/01/20 03:49:16;;;;;;;;;;;4.70;85.40;;;;;;5027916;28;19962;-87
2023/01/20 03:51:55;;;;;;;;;;;4.70;85.40;;;;;;5036131;28;19936;-87
2023/01/20 03:54:23;;;;;;;;;;;4.60;85.60;;;;;;5036077;28;19937;-87
2023/01/20 03:56:54;;;;;;;;;;;4.60;85.40;;;;;;5035878;28;20497;-87
2023/01/20 03:59:21;;;;;;;;;;;4.50;85.40;;;;;;5035994;28;19938;-87
2023/01/20 04:01:47;;;;;;;;;;;4.20;86.40;;;;;;5035841;28;19980;-87
2023/01/20 04:04:15;;;;;;;;;;;4.10;87.00;;;;;;5035685;28;20417;-87
2023/01/20 04:06:42;;;;;;;;;;;4.10;87.60;;;;;;5035811;28;19994;-87
2023/01/20 04:09:09;;;;;;;;;;;4.00;87.60;;;;;;5035772;28;19981;-87
2023/01/20 04:11:35;;;;;;;;;;;4.00;87.70;;;;;;5035727;28;19940;-87
2023/01/20 04:14:00;;;;;;;;;;;4.10;87.70;;;;;;5035576;28;20024;-87
2023/01/20 04:16:26;;;;;;;;;;;4.30;87.10;;;;;;5035869;28;19969;-87
2023/01/20 04:18:52;;;;;;;;;;;4.20;87.10;;;;;;5035601;28;20417;-87
2023/01/20 04:21:33;;;;;;;;;;;4.40;86.60;;;;;;5035470;28;19961;-87
2023/01/20 04:24:16;;;;;;;;;;;4.40;86.10;;;;;;5034075;28;19999;-87
2023/01/20 04:26:41;;;;;;;;;;;4.50;85.90;;;;;;5035545;28;19972;-88
2023/01/20 04:29:07;;;;;;;;;;;4.50;85.70;;;;;;5035432;28;20389;-87
2023/01/20 04:31:34;;;;;;;;;;;4.50;85.60;;;;;;5035350;28;19938;-87
2023/01/20 04:34:00;;;;;;;;;;;4.50;85.40;;;;;;5035349;28;20407;-87
2023/01/20 04:36:25;;;;;;;;;;;4.50;85.40;;;;;;5035231;28;19945;-87
2023/01/20 04:38:51;;;;;;;;;;;4.50;85.30;;;;;;5035264;28;19946;-87
2023/01/20 04:41:16;;;;;;;;;;;4.50;85.30;;;;;;5035122;28;19957;-87
2023/01/20 04:43:43;;;;;;;;;;;4.50;85.30;;;;;;5035166;28;19942;-87
2023/01/20 04:46:09;;;;;;;;;;;4.50;85.20;;;;;;5035040;28;20025;-87
2023/01/20 04:48:35;;;;;;;;;;;4.40;85.20;;;;;;5034804;28;19939;-87
2023/01/20 04:51:02;;;;;;;;;;;4.30;85.30;;;;;;5035021;28;19963;-87
2023/01/20 04:53:28;;;;;;;;;;;3.90;86.40;;;;;;5034900;28;19953;-87
2023/01/20 04:55:53;;;;;;;;;;;3.80;87.00;;;;;;5034772;28;20025;-87
2023/01/20 04:58:19;;;;;;;;;;;3.80;87.30;;;;;;5017406;28;19942;-87
2023/01/20 05:00:44;;;;;;;;;;;3.70;87.10;;;;;;5034767;28;20303;-87
2023/01/20 05:03:10;;;;;;;;;;;3.80;87.10;;;;;;5034745;28;19941;-87
2023/01/20 05:05:35;;;;;;;;;;;3.80;87.10;;;;;;5034723;28;19934;-88
2023/01/20 05:08:03;;;;;;;;;;;3.90;86.80;;;;;;5034953;28;20047;-87
2023/01/20 05:10:30;;;;;;;;;;;3.90;86.40;;;;;;5034641;28;19936;-87
2023/01/20 05:12:55;;;;;;;;;;;3.90;86.40;;;;;;5034434;28;19973;-87
2023/01/20 05:15:21;;;;;;;;;;;4.00;86.20;;;;;;5034328;28;19950;-87
2023/01/20 05:17:46;;;;;;;;;;;4.10;85.80;;;;;;5034508;28;19938;-87
2023/01/20 05:20:13;;;;;;;;;;;4.10;85.50;;;;;;5034703;28;19945;-87
2023/01/20 05:22:38;;;;;;;;;;;4.20;85.40;;;;;;5034308;28;20417;-87
2023/01/20 05:25:04;;;;;;;;;;;4.10;85.30;;;;;;5034612;28;19955;-87
2023/01/20 05:27:30;;;;;;;;;;;4.20;84.90;;;;;;5034316;28;20322;-87
2023/01/20 05:29:55;;;;;;;;;;;4.20;84.80;;;;;;5034282;28;19938;-87
2023/01/20 05:32:21;;;;;;;;;;;4.00;85.20;;;;;;5034191;28;19947;-86
2023/01/20 05:34:46;;;;;;;;;;;3.90;85.50;;;;;;5033917;28;19941;-87
2023/01/20 05:37:15;;;;;;;;;;;3.80;85.90;;;;;;5034104;28;20288;-87
2023/01/20 05:39:40;;;;;;;;;;;3.70;86.20;;;;;;5034080;28;19951;-87
2023/01/20 05:42:06;;;;;;;;;;;3.60;86.50;;;;;;5033651;28;19955;-87
2023/01/20 05:44:31;;;;;;;;;;;3.50;87.00;;;;;;5033824;28;19945;-86
2023/01/20 05:46:57;;;;;;;;;;;3.50;87.00;;;;;;5033970;28;19941;-87
2023/01/20 05:49:22;;;;;;;;;;;3.50;86.90;;;;;;5033909;28;20354;-86
2023/01/20 05:51:48;;;;;;;;;;;3.50;86.80;;;;;;5033536;28;19959;-87
2023/01/20 05:54:13;;;;;;;;;;;3.50;86.90;;;;;;5033772;28;19942;-87
2023/01/20 05:56:39;;;;;;;;;;;3.50;86.60;;;;;;5033652;28;19943;-87
2023/01/20 05:59:05;;;;;;;;;;;3.50;86.40;;;;;;5033705;28;19940;-87
2023/01/20 06:01:31;;;;;;;;;;;3.50;86.00;;;;;;5033607;28;19960;-87
2023/01/20 06:03:56;;;;;;;;;;;3.40;85.20;;;;;;5033571;28;20322;-87
2023/01/20 06:06:22;;;;;;;;;;;3.40;85.00;;;;;;5033296;28;20306;-88
2023/01/20 06:08:50;;;;;;;;;;;3.40;84.70;;;;;;5033518;28;19938;-87
2023/01/20 06:11:16;;;;;;;;;;;3.50;83.30;;;;;;5033779;28;19943;-87
2023/01/20 06:13:42;;;;;;;;;;;3.60;82.30;;;;;;5033337;28;19982;-87
2023/01/20 06:16:08;;;;;;;;;;;3.70;82.00;;;;;;5033749;28;19956;-87
2023/01/20 06:18:33;;;;;;;;;;;3.60;82.50;;;;;;5033612;28;19947;-87
2023/01/20 06:20:59;;;;;;;;;;;3.40;83.30;;;;;;5015595;28;19949;-87
2023/01/20 06:23:25;;;;;;;;;;;3.40;83.50;;;;;;5037038;28;20036;-86
2023/01/20 06:26:00;;;;;;;;;;;3.30;83.10;;;;;;5051357;28;19946;-87
2023/01/20 06:28:26;;;;;;;;;;;3.20;82.60;;;;;;5050040;28;19970;-87
2023/01/20 06:30:57;;;;;;;;;;;3.30;82.50;;;;;;5027136;28;19994;-86
2023/01/20 06:33:23;;;;;;;;;;;3.30;82.20;;;;;;5029893;28;19986;-87
2023/01/20 06:35:51;;;;;;;;;;;3.30;81.60;;;;;;5032672;28;19979;-87
2023/01/20 06:38:17;;;;;;;;;;;3.40;81.90;;;;;;5032859;28;19949;-87
2023/01/20 06:40:42;;;;;;;;;;;3.40;82.10;;;;;;5013235;28;19970;-87
2023/01/20 06:43:08;;;;;;;;;;;3.40;82.10;;;;;;5031514;28;19970;-87
2023/01/20 06:45:33;;;;;;;;;;;3.40;81.80;;;;;;5028256;28;20312;-87
2023/01/20 06:47:59;;;;;;;;;;;3.50;81.20;;;;;;5032143;28;19992;-87
2023/01/20 06:50:24;;;;;;;;;;;3.60;81.10;;;;;;5031231;28;19949;-87
2023/01/20 06:52:52;;;;;;;;;;;3.70;81.10;;;;;;5032072;28;20005;-87
2023/01/20 06:55:17;;;;;;;;;;;3.50;80.50;;;;;;5032205;28;19977;-87
2023/01/20 06:57:43;;;;;;;;;;;3.40;80.70;;;;;;5031347;28;19985;-87
2023/01/20 07:00:08;;;;;;;;;;;3.30;81.70;;;;;;5029899;28;20034;-87
2023/01/20 07:02:34;;;;;;;;;;;3.10;82.50;;;;;;5029668;28;19960;-87
2023/01/20 07:04:59;;;;;;;;;;;2.90;83.90;;;;;;5013458;28;19958;-87
2023/01/20 07:07:25;;;;;;;;;;;2.70;84.10;;;;;;5031631;28;19946;-87
2023/01/20 07:09:53;;;;;;;;;;;2.60;84.10;;;;;;5028206;28;19950;-87
2023/01/20 07:12:18;;;;;;;;;;;2.60;84.00;;;;;;5028914;28;20023;-87
2023/01/20 07:14:44;;;;;;;;;;;2.80;84.60;;;;;;5031627;28;19997;-88
2023/01/20 07:17:11;;;;;;;;;;;3.00;83.70;;;;;;5032201;28;19975;-87
2023/01/20 07:19:36;;;;;;;;;;;3.20;83.00;;;;;;5031956;28;20412;-87
2023/01/20 07:22:02;;;;;;;;;;;3.20;82.90;;;;;;5032314;28;19988;-87
2023/01/20 07:24:27;;;;;;;;;;;3.40;82.20;;;;;;5029785;28;20408;-88
2023/01/20 07:26:53;;;;;;;;;;;3.30;81.60;;;;;;5031089;28;19946;-87
2023/01/20 07:29:18;;;;;;;;;;;3.00;82.40;;;;;;5030428;28;19993;-86
2023/01/20 07:31:44;;;;;;;;;;;2.90;82.70;;;;;;5029125;28;19945;-87
2023/01/20 07:34:10;;;;;;;;;;;2.90;83.10;;;;;;5029937;28;19987;-87
2023/01/20 07:36:35;;;;;;;;;;;2.90;82.90;;;;;;5030217;28;19944;-87
2023/01/20 07:39:01;;;;;;;;;;;2.90;83.50;;;;;;5026969;28;19941;-87
2023/01/20 07:41:26;;;;;;;;;;;2.90;83.70;;;;;;5026407;28;20017;-87
2023/01/20 07:43:52;;;;;;;;;;;2.90;83.40;;;;;;5029920;28;19949;-87
2023/01/20 07:46:18;;;;;;;;;;;2.90;83.30;;;;;;5029854;28;20367;-87
2023/01/20 07:48:43;;;;;;;;;;;3.00;83.20;;;;;;5029656;28;19973;-87
2023/01/20 07:51:10;;;;;;;;;;;3.20;82.70;;;;;;5012171;28;20438;-87
2023/01/20 07:53:40;;;;;;;;;;;3.40;82.40;;;;;;5028382;28;19960;-87
2023/01/20 07:56:10;;;;;;;;;;;3.50;82.10;;;;;;5030292;28;19981;-87
2023/01/20 07:58:36;;;;;;;;;;;3.50;81.70;;;;;;5029558;28;20023;-87
2023/01/20 08:01:08;;;;;;;;;;;3.50;81.90;;;;;;5030896;28;20183;-87
2023/01/20 08:03:34;;;;;;;;;;;3.60;82.10;;;;;;5033079;28;19945;-86
2023/01/20 08:06:06;;;;;;;;;;;3.50;82.00;;;;;;5033764;28;20013;-87
2023/01/20 08:08:32;;;;;;;;;;;3.60;82.00;;;;;;5033760;28;19951;-87
2023/01/20 08:11:00;;;;;;;;;;;3.70;82.00;;;;;;5030378;28;19945;-87
2023/01/20 08:13:26;;;;;;;;;;;3.70;82.20;;;;;;5034539;28;19978;-87
2023/01/20 08:15:51;;;;;;;;;;;3.80;82.30;;;;;;5027447;28;19947;-87
2023/01/20 08:18:17;;;;;;;;;;;4.00;81.60;;;;;;5028240;28;20430;-87
2023/01/20 08:20:42;;;;;;;;;;;4.20;80.80;;;;;;5031687;28;20033;-87
2023/01/20 08:23:08;;;;;;;;;;;4.40;80.50;;;;;;5032012;28;20117;-86
2023/01/20 08:25:33;;;;;;;;;;;4.50;80.60;;;;;;5027707;28;20126;-87
2023/01/20 08:27:59;;;;;;;;;;;4.70;79.60;;;;;;5013700;28;20323;-87
2023/01/20 08:30:24;;;;;;;;;;;4.80;80.20;;;;;;5034567;28;19940;-87
2023/01/20 08:32:50;;;;;;;;;;;4.50;79.70;;;;;;5029484;28;19958;-86
2023/01/20 08:35:16;;;;;;;;;;;4.50;80.70;;;;;;5029997;28;19934;-87
2023/01/20 08:37:41;;;;;;;;;;;4.60;80.40;;;;;;5028770;28;20394;-86
2023/01/20 08:40:08;;;;;;;;;;;4.70;79.30;;;;;;5034735;28;20058;-86
2023/01/20 08:42:35;;;;;;;;;;;4.80;78.60;;;;;;5032255;28;19987;-87
2023/01/20 08:45:00;;;;;;;;;;;4.90;78.90;;;;;;5029805;28;19962;-87
2023/01/20 08:47:26;;;;;;;;;;;4.90;78.40;;;;;;5029195;28;19951;-86
2023/01/20 08:49:52;;;;;;;;;;;5.00;78.60;;;;;;5029180;28;20415;-87
2023/01/20 08:52:17;;;;;;;;;;;5.10;77.80;;;;;;5025215;28;20302;-87
2023/01/20 08:54:43;;;;;;;;;;;5.40;77.10;;;;;;5031610;28;20305;-87
2023/01/20 08:57:08;;;;;;;;;;;5.60;76.30;;;;;;5010844;28;19943;-87
2023/01/20 08:59:34;;;;;;;;;;;5.80;75.50;;;;;;5029911;28;20393;-87
2023/01/20 09:01:59;;;;;;;;;;;6.00;75.20;;;;;;5027258;28;19977;-87
2023/01/20 09:04:25;;;;;;;;;;;6.10;74.90;;;;;;5026730;28;19958;-87
2023/01/20 09:06:51;;;;;;;;;;;6.10;74.20;;;;;;5030668;28;20004;-86
2023/01/20 09:09:18;;;;;;;;;;;6.00;73.00;;;;;;5029552;28;19943;-87
2023/01/20 09:11:49;;;;;;;;;;;6.00;74.20;;;;;;5027571;28;19988;-87
2023/01/20 09:14:21;;;;;;;;;;;5.80;73.70;;;;;;5053088;23;20065;-87
2023/01/20 09:16:47;;;;;;;;;;;5.70;74.90;;;;;;5049181;28;20601;-87
2023/01/20 09:19:13;;;;;;;;;;;5.50;74.10;;;;;;5051828;28;19942;-87
2023/01/20 09:21:38;;;;;;;;;;;5.50;73.40;;;;;;5051005;28;19972;-87
2023/01/20 09:24:04;;;;;;;;;;;5.50;73.30;;;;;;5052592;28;19948;-87
2023/01/20 09:26:37;;;;;;;;;;;5.70;73.10;;;;;;5050112;28;20272;-86
2023/01/20 09:29:07;;;;;;;;;;;5.50;72.90;;;;;;5053336;28;19953;-87
2023/01/20 09:31:33;;;;;;;;;;;5.60;73.50;;;;;;5046137;28;19939;-87
2023/01/20 09:33:59;;;;;;;;;;;5.60;73.30;;;;;;5048040;28;19972;-87
2023/01/20 09:36:28;;;;;;;;;;;5.70;73.10;;;;;;5047725;28;19961;-87
2023/01/20 09:44:26;;;;;;;;;;;5.40;73.30;;;;;;5050973;28;20505;-86
2023/01/20 09:47:18;;;;;;;;;;;5.40;73.40;;;;;;5045670;28;19960;-86
2023/01/20 09:55:28;;;;;;;;;;;5.50;71.60;;;;;;5030782;28;19953;-87
2023/01/20 09:57:58;;;;;;;;;;;5.60;71.70;;;;;;5030534;28;19947;-87
2023/01/20 10:00:26;;;;;;;;;;;5.60;69.50;;;;;;5031064;28;19950;-87
2023/01/20 10:02:56;;;;;;;;;;;5.70;68.40;;;;;;5032576;28;20054;-87
2023/01/20 10:05:31;;;;;;;;;;;5.90;68.50;;;;;;5014787;28;19941;-87
2023/01/20 10:07:57;;;;;;;;;;;6.10;67.90;;;;;;5029037;28;19942;-87
2023/01/20 10:10:30;;;;;;;;;;;6.00;68.30;;;;;;5027463;28;19951;-87
2023/01/20 10:13:09;;;;;;;;;;;6.10;67.00;;;;;;5025378;28;19973;-87
2023/01/20 10:15:36;;;;;;;;;;;6.10;68.30;;;;;;5030360;28;19942;-86
2023/01/20 10:18:16;;;;;;;;;;;6.00;66.70;;;;;;5029360;28;19949;-87
2023/01/20 10:20:45;;;;;;;;;;;6.20;68.60;;;;;;5029685;28;19951;-87
2023/01/20 10:23:11;;;;;;;;;;;6.40;66.40;;;;;;5024112;28;20010;-87
2023/01/20 10:25:51;;;;;;;;;;;6.40;67.20;;;;;;5032458;28;19945;-87
2023/01/20 10:28:26;;;;;;;;;;;6.40;67.30;;;;;;5027754;28;19993;-87
2023/01/20 10:30:52;;;;;;;;;;;6.60;65.20;;;;;;5026660;28;20151;-87
2023/01/20 10:33:22;;;;;;;;;;;6.60;65.50;;;;;;5024569;28;20056;-87
2023/01/20 10:35:50;;;;;;;;;;;6.60;64.80;;;;;;5028475;28;20016;-87
2023/01/20 10:38:34;;;;;;;;;;;6.80;64.70;;;;;;5030141;28;19940;-87
2023/01/20 10:41:03;;;;;;;;;;;6.80;64.80;;;;;;5024031;28;19942;-87
2023/01/20 10:43:29;;;;;;;;;;;7.10;66.30;;;;;;5033639;28;20426;-87
2023/01/20 10:46:09;;;;;;;;;;;7.20;65.40;;;;;;5027686;28;19948;-87
2023/01/20 10:48:43;;;;;;;;;;;7.10;63.40;;;;;;5027862;28;19953;-87
2023/01/20 10:51:31;;;;;;;;;;;7.10;63.60;;;;;;5020552;28;19941;-87
2023/01/20 10:54:03;;;;;;;;;;;7.20;63.40;;;;;;5011123;28;20337;-87
2023/01/20 10:56:41;;;;;;;;;;;7.40;63.20;;;;;;5031334;28;19948;-87
2023/01/20 10:59:15;;;;;;;;;;;7.40;62.60;;;;;;5031925;28;20051;-86
2023/01/20 11:01:42;;;;;;;;;;;7.50;62.10;;;;;;5022792;28;19972;-87
2023/01/20 11:04:14;;;;;;;;;;;7.60;61.30;;;;;;5027267;28;19950;-87
2023/01/20 11:06:40;;;;;;;;;;;7.60;61.20;;;;;;5027943;28;20350;-87
2023/01/20 11:09:17;;;;;;;;;;;7.90;60.80;;;;;;5032510;28;19989;-87
2023/01/20 11:11:43;;;;;;;;;;;8.10;60.90;;;;;;5031245;28;19962;-87
2023/01/20 11:14:08;;;;;;;;;;;8.30;59.60;;;;;;5032059;28;19975;-87
2023/01/20 11:16:34;;;;;;;;;;;8.60;58.60;;;;;;5030998;28;19954;-87
2023/01/20 11:19:01;;;;;;;;;;;8.80;58.40;;;;;;5032380;28;19945;-87
2023/01/20 11:21:29;;;;;;;;;;;8.80;58.00;;;;;;5025563;28;19961;-87
2023/01/20 11:23:55;;;;;;;;;;;8.90;58.60;;;;;;5032106;28;19984;-87
2023/01/20 11:26:25;;;;;;;;;;;8.90;57.30;;;;;;5032555;28;19938;-87
2023/01/20 11:28:55;;;;;;;;;;;8.80;55.90;;;;;;5029580;28;19955;-87
2023/01/20 11:31:32;;;;;;;;;;;8.70;56.50;;;;;;5031290;28;19944;-87
2023/01/20 11:33:58;;;;;;;;;;;8.80;56.90;;;;;;5035486;28;19943;-87
2023/01/20 11:36:25;;;;;;;;;;;8.90;55.90;;;;;;5036470;28;19937;-87
2023/01/20 11:38:51;;;;;;;;;;;9.00;56.10;;;;;;5036434;28;19946;-87
2023/01/20 11:41:19;;;;;;;;;;;9.40;54.30;;;;;;5036263;28;20309;-87
2023/01/20 11:43:45;;;;;;;;;;;9.70;54.80;;;;;;5036250;28;20048;-87
2023/01/20 11:46:11;;;;;;;;;;;10.20;53.30;;;;;;5036297;28;20032;-87
2023/01/20 11:48:37;;;;;;;;;;;10.50;52.40;;;;;;5036017;28;19945;-87
2023/01/20 11:51:02;;;;;;;;;;;10.80;51.80;;;;;;5036224;28;19964;-87
2023/01/20 11:53:32;;;;;;;;;;;10.70;53.00;;;;;;5036072;28;19957;-87
2023/01/20 11:55:59;;;;;;;;;;;10.90;52.00;;;;;;5036214;28;19963;-87
2023/01/20 11:58:26;;;;;;;;;;;10.80;50.90;;;;;;5036074;28;19943;-87
2023/01/20 12:00:59;;;;;;;;;;;10.80;51.50;;;;;;5036002;28;19946;-87
2023/01/20 12:03:44;;;;;;;;;;;11.00;51.30;;;;;;5035830;28;20438;-87
2023/01/20 12:06:26;;;;;;;;;;;11.20;50.20;;;;;;5035948;28;19942;-87
2023/01/20 12:08:54;;;;;;;;;;;11.40;50.10;;;;;;5035860;28;20443;-87
2023/01/20 12:11:22;;;;;;;;;;;11.70;49.50;;;;;;5034685;28;19954;-87
2023/01/20 12:16:42;;;;;;;;;;;13.10;44.40;;;;;;5035429;28;19998;-88
2023/01/20 12:19:13;;;;;;;;;;;14.00;42.80;;;;;;5035351;28;20387;-88
2023/01/20 12:21:41;;;;;;;;;;;14.90;41.30;;;;;;5034892;28;19981;-88
2023/01/20 12:24:17;;;;;;;;;;;15.70;37.90;;;;;;5035515;28;19961;-88
2023/01/20 12:26:42;;;;;;;;;;;14.90;37.50;;;;;;5035111;28;19945;-87
2023/01/20 12:29:14;;;;;;;;;;;14.40;39.90;;;;;;5029791;28;19954;-87
2023/01/20 12:31:40;;;;;;;;;;;14.10;40.00;;;;;;5035030;28;20054;-88
2023/01/20 12:34:11;;;;;;;;;;;14.20;40.50;;;;;;5033349;28;19985;-87
2023/01/20 12:36:55;;;;;;;;;;;13.90;40.60;;;;;;5031306;28;19943;-87
2023/01/20 12:39:42;;;;;;;;;;;13.60;41.50;;;;;;5030269;28;19997;-88
2023/01/20 12:42:26;;;;;;;;;;;13.90;42.20;;;;;;5025212;28;19963;-88
2023/01/20 12:45:13;;;;;;;;;;;14.70;39.50;;;;;;5031446;28;20342;-88
2023/01/20 12:47:45;;;;;;;;;;;15.30;38.10;;;;;;5034237;28;19980;-88
2023/01/20 12:50:29;;;;;;;;;;;16.40;36.50;;;;;;5028758;28;20039;-88
2023/01/20 12:53:02;;;;;;;;;;;16.80;35.60;;;;;;5030534;28;20492;-88
2023/01/20 12:55:47;;;;;;;;;;;17.40;35.30;;;;;;5034075;28;19936;-88
2023/01/20 12:58:31;;;;;;;;;;;17.20;34.60;;;;;;5034327;28;19949;-87
2023/01/20 13:01:17;;;;;;;;;;;15.80;36.80;;;;;;5032806;28;19946;-87
2023/01/20 13:04:01;;;;;;;;;;;15.50;35.90;;;;;;5023307;28;20471;-87
2023/01/20 13:06:29;;;;;;;;;;;15.10;36.90;;;;;;5032760;28;19944;-87
2023/01/20 13:09:10;;;;;;;;;;;14.90;36.90;;;;;;5030209;28;20426;-87
2023/01/20 13:11:52;;;;;;;;;;;15.70;35.50;;;;;;5029683;28;19984;-88
2023/01/20 13:14:23;;;;;;;;;;;16.50;34.20;;;;;;5026587;28;19980;-87
2023/01/20 13:17:05;;;;;;;;;;;15.70;34.50;;;;;;5033831;28;19946;-88
2023/01/20 13:19:38;;;;;;;;;;;16.40;36.00;;;;;;5026297;28;20412;-88
2023/01/20 13:22:13;;;;;;;;;;;17.50;33.30;;;;;;5033759;28;20059;-88
2023/01/20 13:24:41;;;;;;;;;;;18.00;33.90;;;;;;5033102;28;20089;-88
2023/01/20 13:27:06;;;;;;;;;;;18.80;31.50;;;;;;5033172;28;19943;-88
2023/01/20 13:29:35;;;;;;;;;;;17.60;32.20;;;;;;5031152;28;20388;-88
2023/01/20 13:32:01;;;;;;;;;;;16.70;34.20;;;;;;5032110;28;19956;-87
2023/01/20 13:34:30;;;;;;;;;;;16.40;34.80;;;;;;5029840;28;19946;-87
2023/01/20 13:37:01;;;;;;;;;;;16.10;35.10;;;;;;5040579;28;20047;-87
2023/01/20 13:39:38;;;;;;;;;;;15.70;36.10;;;;;;5035194;28;19946;-88
2023/01/20 13:42:23;;;;;;;;;;;15.80;38.30;;;;;;5029567;28;19966;-88
2023/01/20 13:45:08;;;;;;;;;;;17.10;34.10;;;;;;5022311;28;19946;-87
2023/01/20 13:47:48;;;;;;;;;;;17.70;33.60;;;;;;5029690;28;19951;-88
2023/01/20 13:50:22;;;;;;;;;;;17.30;33.90;;;;;;5032942;28;19938;-88
2023/01/20 13:52:51;;;;;;;;;;;16.70;35.00;;;;;;5027795;28;19981;-87
2023/01/20 13:55:29;;;;;;;;;;;16.50;34.50;;;;;;5032563;28;20054;-87
2023/01/20 13:57:54;;;;;;;;;;;16.40;35.20;;;;;;5021839;28;19969;-88
2023/01/20 14:00:20;;;;;;;;;;;16.30;35.00;;;;;;5030388;28;20400;-87
2023/01/20 14:02:46;;;;;;;;;;;16.50;35.20;;;;;;5031854;28;20019;-87
2023/01/20 14:05:18;;;;;;;;;;;15.50;37.60;;;;;;5032448;28;19943;-87
2023/01/20 14:07:44;;;;;;;;;;;14.50;38.50;;;;;;5030903;28;20001;-87
2023/01/20 14:10:10;;;;;;;;;;;14.30;39.00;;;;;;5032767;28;20373;-87
2023/01/20 14:12:40;;;;;;;;;;;14.00;40.30;;;;;;5029725;28;19955;-87
2023/01/20 14:15:05;;;;;;;;;;;13.90;40.20;;;;;;5031306;28;19950;-87
2023/01/20 14:17:31;;;;;;;;;;;14.50;40.20;;;;;;5030787;28;19949;-88
2023/01/20 14:19:56;;;;;;;;;;;14.40;40.10;;;;;;5029168;28;20029;-88
2023/01/20 14:22:29;;;;;;;;;;;13.90;41.20;;;;;;5028790;28;19965;-87
2023/01/20 14:24:59;;;;;;;;;;;13.00;42.30;;;;;;5027574;28;19950;-87
2023/01/20 14:27:27;;;;;;;;;;;12.20;44.60;;;;;;5029850;28;19964;-87
2023/01/20 14:29:53;;;;;;;;;;;11.70;46.50;;;;;;5027572;28;19939;-87
2023/01/20 14:32:31;;;;;;;;;;;11.30;48.20;;;;;;5032429;28;20001;-87
2023/01/20 14:34:57;;;;;;;;;;;11.10;47.50;;;;;;5032251;28;19949;-87
2023/01/20 14:37:26;;;;;;;;;;;10.90;48.90;;;;;;5030931;28;19946;-87
2023/01/20 14:39:53;;;;;;;;;;;10.40;50.50;;;;;;5028074;28;19953;-87
2023/01/20 14:42:20;;;;;;;;;;;10.20;52.40;;;;;;5026488;28;20437;-87
2023/01/20 14:44:46;;;;;;;;;;;10.00;52.80;;;;;;5029000;28;19980;-87
2023/01/20 14:47:12;;;;;;;;;;;9.80;53.20;;;;;;5031076;28;19946;-87
2023/01/20 14:49:38;;;;;;;;;;;9.70;52.80;;;;;;5031824;28;20425;-87
2023/01/20 14:52:07;;;;;;;;;;;9.80;51.80;;;;;;5028098;28;19944;-87